This is the latest recevied weather packets stored in our database for station/object KR8N. If no packets are shown the sender has not sent any weather packets the latest 10 day(s).
| Time | Temp. | Humidity | Pressure | Rain* | Wind** | Luminosity | Snow |
|---|---|---|---|---|---|---|---|
| 1778017844 | 22.22° C | 31% | 1014.1 hPa | 0 mm | - | 176 W/m² | - |
| 1778017542 | 22.22° C | 30% | 1014.1 hPa | 0 mm | - | 200 W/m² | - |
| 1778017238 | 22.22° C | 32% | 1014.1 hPa | 0 mm | - | 186 W/m² | - |
| 1778016936 | 22.78° C | 31% | 1014 hPa | 0 mm | - | 152 W/m² | - |
| 1778016632 | 23.33° C | 34% | 1014.3 hPa | 0 mm | - | 140 W/m² | - |
| 1778016329 | 23.33° C | 31% | 1014.2 hPa | 0 mm | - | 287 W/m² | - |
| 1778016026 | 23.89° C | 33% | 1014.1 hPa | 0 mm | - | 241 W/m² | - |
| 1778015723 | 23.89° C | 34% | 1014.4 hPa | 0 mm | - | 454 W/m² | - |
| 1778015420 | 23.89° C | 31% | 1014.3 hPa | 0 mm | - | 470 W/m² | - |
| 1778015116 | 23.89° C | 34% | 1014.3 hPa | 0 mm | - | 501 W/m² | - |
| 1778014814 | 23.89° C | 33% | 1014.2 hPa | 0 mm | - | 522 W/m² | - |
| 1778014512 | 23.33° C | 36% | 1014.5 hPa | 0 mm | - | 558 W/m² | - |
| 1778014209 | 22.78° C | 35% | 1014.5 hPa | 0 mm | - | 410 W/m² | - |
| 1778013906 | 22.22° C | 35% | 1014.4 hPa | 0 mm | - | 276 W/m² | - |
| 1778013603 | 22.78° C | 35% | 1014.6 hPa | 0 mm | - | 276 W/m² | - |
| 1778013299 | 22.78° C | 33% | 1014.6 hPa | 0 mm | - | 319 W/m² | - |
| 1778012996 | 22.22° C | 32% | 1014.4 hPa | 0 mm | - | 324 W/m² | - |
| 1778012693 | 22.22° C | 33% | 1014.5 hPa | 0 mm | - | 269 W/m² | - |
| 1778012389 | 22.78° C | 30% | 1014.6 hPa | 0 mm | - | 253 W/m² | - |
| 1778012086 | 22.78° C | 33% | 1014.6 hPa | 0 mm | - | 289 W/m² | - |
| 1778011784 | 22.78° C | 32% | 1014.9 hPa | 0 mm | - | 460 W/m² | - |
| 1778011481 | 22.78° C | 32% | 1015 hPa | 0 mm | - | 410 W/m² | - |
| 1778011176 | 22.78° C | 32% | 1014.9 hPa | 0 mm | - | 320 W/m² | - |
| 1778010874 | 22.78° C | 35% | 1015.2 hPa | 0 mm | - | 371 W/m² | - |
| 1778010571 | 23.33° C | 31% | 1014.9 hPa | 0 mm | - | 361 W/m² | - |
* Rain latest hour (hover to see other rain measurements)
** Current wind speed in m/s (hover to see current wind gust speed)